TAP37AH LPPT-LFBO
Flight info
| Callsign | TAP37AH |
|---|---|
| Flight time | 1h 33m |
| Altitude | 36000 |
| Route | IXIDA DCT TOSDI DCT ZMR DCT NEA DCT DGO DCT LPA DCT GOSVI/N0438F280 DCT TOPTU |
| Aircraft | A320/M-SDE3FGHIJ1RWXYZ/LB1 |
Departure
| Time | 2026-05-08 06:47 |
|---|---|
| Airport | Lisbon Humberto Delgado Airport (LPPT) |
Arrival
| Time | 2026-05-08 08:20 |
|---|---|
| Airport | Toulouse-Blagnac Airport (LFBO) |
| Time | Latitude | Longitude | Altitude | Speed | Heading |
|---|---|---|---|---|---|
| 2026-05-08 06:20 | 38.77028 | -9.13087 | 334 ft | 0 kts | 78° |
| 2026-05-08 06:36 | 38.77027 | -9.13089 | 337 ft | 2 kts | 78° |
| 2026-05-08 06:36 | 38.77022 | -9.13120 | 335 ft | 4 kts | 78° |
| 2026-05-08 06:37 | 38.77018 | -9.13148 | 332 ft | 4 kts | 68° |
| 2026-05-08 06:37 | 38.77004 | -9.13169 | 334 ft | 4 kts | 3° |
| 2026-05-08 06:37 | 38.76979 | -9.13165 | 335 ft | 4 kts | 348° |
| 2026-05-08 06:39 | 38.76980 | -9.13166 | 338 ft | 1 kts | 348° |
| 2026-05-08 06:39 | 38.77020 | -9.13176 | 338 ft | 10 kts | 348° |
| 2026-05-08 06:40 | 38.77089 | -9.13196 | 337 ft | 10 kts | 348° |
| 2026-05-08 06:40 | 38.77151 | -9.13212 | 337 ft | 9 kts | 348° |
| 2026-05-08 06:40 | 38.77207 | -9.13227 | 333 ft | 9 kts | 348° |
| 2026-05-08 06:40 | 38.77267 | -9.13243 | 338 ft | 8 kts | 348° |
| 2026-05-08 06:41 | 38.77323 | -9.13255 | 337 ft | 10 kts | 352° |
| 2026-05-08 06:41 | 38.77402 | -9.13272 | 336 ft | 12 kts | 349° |
| 2026-05-08 06:41 | 38.77480 | -9.13293 | 338 ft | 11 kts | 348° |
| 2026-05-08 06:41 | 38.77558 | -9.13313 | 338 ft | 12 kts | 349° |
| 2026-05-08 06:42 | 38.77649 | -9.13320 | 335 ft | 13 kts | 360° |
| 2026-05-08 06:42 | 38.77729 | -9.13337 | 340 ft | 9 kts | 348° |
| 2026-05-08 06:42 | 38.77765 | -9.13347 | 347 ft | 1 kts | 348° |
| 2026-05-08 06:42 | 38.77781 | -9.13351 | 345 ft | 7 kts | 348° |
| 2026-05-08 06:43 | 38.77868 | -9.13375 | 349 ft | 18 kts | 348° |
| 2026-05-08 06:43 | 38.77969 | -9.13401 | 354 ft | 10 kts | 348° |
| 2026-05-08 06:43 | 38.78035 | -9.13411 | 359 ft | 13 kts | 8° |
| 2026-05-08 06:43 | 38.78130 | -9.13364 | 359 ft | 14 kts | 22° |
| 2026-05-08 06:44 | 38.78226 | -9.13313 | 360 ft | 17 kts | 22° |
| 2026-05-08 06:44 | 38.78328 | -9.13260 | 361 ft | 15 kts | 22° |
| 2026-05-08 06:44 | 38.78418 | -9.13219 | 360 ft | 12 kts | 7° |
| 2026-05-08 06:44 | 38.78491 | -9.13234 | 361 ft | 10 kts | 342° |
| 2026-05-08 06:45 | 38.78536 | -9.13286 | 360 ft | 9 kts | 296° |
| 2026-05-08 06:45 | 38.78533 | -9.13359 | 361 ft | 8 kts | 243° |
| 2026-05-08 06:45 | 38.78493 | -9.13400 | 362 ft | 6 kts | 202° |
| 2026-05-08 06:45 | 38.78490 | -9.13401 | 362 ft | 0 kts | 202° |
| 2026-05-08 06:46 | 38.78310 | -9.13499 | 365 ft | 65 kts | 202° |
| 2026-05-08 06:46 | 38.77686 | -9.13832 | 365 ft | 126 kts | 202° |
| 2026-05-08 06:46 | 38.76777 | -9.14315 | 742 ft | 142 kts | 203° |
| 2026-05-08 06:47 | 38.75879 | -9.14795 | 1489 ft | 140 kts | 200° |
| 2026-05-08 06:47 | 38.74893 | -9.15275 | 1846 ft | 163 kts | 201° |
| 2026-05-08 06:47 | 38.73781 | -9.15841 | 2215 ft | 182 kts | 200° |
| 2026-05-08 06:47 | 38.72528 | -9.16477 | 2507 ft | 205 kts | 201° |
| 2026-05-08 06:48 | 38.71141 | -9.17256 | 2860 ft | 231 kts | 204° |
| 2026-05-08 06:48 | 38.69609 | -9.18132 | 3503 ft | 247 kts | 203° |
| 2026-05-08 06:48 | 38.68018 | -9.19005 | 4444 ft | 250 kts | 203° |
| 2026-05-08 06:48 | 38.66454 | -9.20011 | 5358 ft | 254 kts | 218° |
| 2026-05-08 06:49 | 38.65360 | -9.21780 | 6264 ft | 259 kts | 246° |
| 2026-05-08 06:49 | 38.65091 | -9.24071 | 7112 ft | 267 kts | 275° |
| 2026-05-08 06:49 | 38.65667 | -9.26347 | 7991 ft | 272 kts | 290° |
| 2026-05-08 06:49 | 38.66570 | -9.28491 | 8872 ft | 279 kts | 307° |
| 2026-05-08 06:50 | 38.68070 | -9.30099 | 9743 ft | 287 kts | 330° |
| 2026-05-08 06:50 | 38.70011 | -9.30870 | 10352 ft | 305 kts | 352° |
| 2026-05-08 06:50 | 38.72198 | -9.30505 | 10615 ft | 334 kts | 20° |
| 2026-05-08 06:50 | 38.74280 | -9.28962 | 10883 ft | 357 kts | 32° |
| 2026-05-08 06:51 | 38.76367 | -9.27165 | 11494 ft | 365 kts | 32° |
| 2026-05-08 06:51 | 38.78475 | -9.25324 | 12201 ft | 369 kts | 32° |
| 2026-05-08 06:51 | 38.80605 | -9.23463 | 12949 ft | 373 kts | 32° |
| 2026-05-08 06:51 | 38.82765 | -9.21591 | 13666 ft | 377 kts | 32° |
| 2026-05-08 06:52 | 38.84890 | -9.19583 | 14288 ft | 383 kts | 39° |
| 2026-05-08 06:52 | 38.86780 | -9.17141 | 14873 ft | 390 kts | 46° |
| 2026-05-08 06:52 | 38.88596 | -9.14526 | 15464 ft | 394 kts | 46° |
| 2026-05-08 06:52 | 38.90431 | -9.11886 | 16042 ft | 399 kts | 46° |
| 2026-05-08 06:53 | 38.92289 | -9.09214 | 16647 ft | 403 kts | 46° |
| 2026-05-08 06:53 | 38.94170 | -9.06505 | 17237 ft | 409 kts | 45° |
| 2026-05-08 06:53 | 38.96071 | -9.03762 | 17844 ft | 413 kts | 45° |
| 2026-05-08 06:53 | 38.97990 | -9.00986 | 18383 ft | 418 kts | 45° |
| 2026-05-08 06:54 | 38.99925 | -8.98179 | 18876 ft | 421 kts | 45° |
| 2026-05-08 06:54 | 39.01877 | -8.95347 | 19390 ft | 424 kts | 46° |
| 2026-05-08 06:54 | 39.03840 | -8.92501 | 19921 ft | 427 kts | 46° |
| 2026-05-08 06:54 | 39.05817 | -8.89636 | 20431 ft | 430 kts | 46° |
| 2026-05-08 06:55 | 39.07808 | -8.86751 | 20920 ft | 433 kts | 46° |
| 2026-05-08 06:55 | 39.09814 | -8.83843 | 21391 ft | 436 kts | 46° |
| 2026-05-08 06:55 | 39.11833 | -8.80913 | 21864 ft | 439 kts | 46° |
| 2026-05-08 06:55 | 39.13866 | -8.77955 | 22333 ft | 442 kts | 46° |
| 2026-05-08 06:56 | 39.15881 | -8.75018 | 22786 ft | 445 kts | 46° |
| 2026-05-08 06:56 | 39.17937 | -8.72019 | 23243 ft | 448 kts | 46° |
| 2026-05-08 06:56 | 39.20002 | -8.68999 | 23696 ft | 449 kts | 48° |
| 2026-05-08 06:56 | 39.22070 | -8.65970 | 24099 ft | 451 kts | 48° |
| 2026-05-08 06:57 | 39.24149 | -8.62922 | 24458 ft | 454 kts | 48° |
| 2026-05-08 06:57 | 39.26240 | -8.59857 | 24810 ft | 456 kts | 48° |
| 2026-05-08 06:57 | 39.28339 | -8.56776 | 25205 ft | 457 kts | 49° |
| 2026-05-08 06:57 | 39.30441 | -8.53685 | 25586 ft | 459 kts | 49° |
| 2026-05-08 06:58 | 39.32555 | -8.50575 | 25946 ft | 461 kts | 49° |
| 2026-05-08 06:58 | 39.34676 | -8.47455 | 26291 ft | 464 kts | 49° |
| 2026-05-08 06:58 | 39.36807 | -8.44314 | 26641 ft | 466 kts | 49° |
| 2026-05-08 06:58 | 39.38952 | -8.41149 | 26984 ft | 469 kts | 49° |
| 2026-05-08 06:59 | 39.41104 | -8.37972 | 27320 ft | 471 kts | 49° |
| 2026-05-08 06:59 | 39.43268 | -8.34775 | 27630 ft | 474 kts | 49° |
| 2026-05-08 06:59 | 39.45441 | -8.31564 | 27991 ft | 474 kts | 50° |
| 2026-05-08 06:59 | 39.47615 | -8.28347 | 28349 ft | 475 kts | 50° |
| 2026-05-08 07:00 | 39.49791 | -8.25120 | 28660 ft | 477 kts | 50° |
| 2026-05-08 07:00 | 39.51978 | -8.21869 | 28951 ft | 479 kts | 51° |
| 2026-05-08 07:00 | 39.54157 | -8.18626 | 29440 ft | 476 kts | 51° |
| 2026-05-08 07:00 | 39.56316 | -8.15409 | 30017 ft | 471 kts | 52° |
| 2026-05-08 07:01 | 39.58463 | -8.12209 | 30420 ft | 470 kts | 52° |
| 2026-05-08 07:01 | 39.60604 | -8.09015 | 30749 ft | 469 kts | 52° |
| 2026-05-08 07:01 | 39.62744 | -8.05818 | 31050 ft | 469 kts | 52° |
| 2026-05-08 07:01 | 39.64885 | -8.02615 | 31357 ft | 470 kts | 52° |
| 2026-05-08 07:02 | 39.67078 | -7.99464 | 31655 ft | 471 kts | 49° |
| 2026-05-08 07:02 | 39.69383 | -7.96432 | 31957 ft | 473 kts | 46° |
| 2026-05-08 07:02 | 39.71766 | -7.93483 | 32269 ft | 473 kts | 45° |
| 2026-05-08 07:02 | 39.74180 | -7.90575 | 32580 ft | 474 kts | 45° |
| 2026-05-08 07:03 | 39.76596 | -7.87662 | 32887 ft | 474 kts | 46° |
| 2026-05-08 07:03 | 39.78990 | -7.84734 | 33310 ft | 471 kts | 47° |
| 2026-05-08 07:03 | 39.80556 | -7.82790 | 33569 ft | 470 kts | 47° |
| 2026-05-08 07:03 | 39.83694 | -7.78833 | 34001 ft | 470 kts | 47° |
| 2026-05-08 07:04 | 39.86024 | -7.75853 | 34260 ft | 470 kts | 47° |
| 2026-05-08 07:04 | 39.87567 | -7.73871 | 34411 ft | 471 kts | 47° |
| 2026-05-08 07:04 | 39.90660 | -7.69901 | 34715 ft | 472 kts | 47° |
| 2026-05-08 07:04 | 39.92242 | -7.67878 | 34873 ft | 473 kts | 47° |
| 2026-05-08 07:05 | 39.94599 | -7.64879 | 35100 ft | 474 kts | 47° |
| 2026-05-08 07:05 | 39.97725 | -7.60907 | 35386 ft | 475 kts | 46° |
| 2026-05-08 07:05 | 40.00089 | -7.57900 | 35586 ft | 475 kts | 47° |
| 2026-05-08 07:05 | 40.02455 | -7.54885 | 35815 ft | 475 kts | 47° |
| 2026-05-08 07:06 | 40.06421 | -7.49815 | 35911 ft | 477 kts | 47° |
| 2026-05-08 07:06 | 40.11163 | -7.43735 | 35916 ft | 478 kts | 47° |
| 2026-05-08 07:07 | 40.15917 | -7.37652 | 35906 ft | 478 kts | 47° |
| 2026-05-08 07:07 | 40.20666 | -7.31562 | 35913 ft | 478 kts | 47° |
| 2026-05-08 07:08 | 40.25402 | -7.25454 | 35914 ft | 478 kts | 48° |
| 2026-05-08 07:08 | 40.30140 | -7.19342 | 35898 ft | 478 kts | 48° |
| 2026-05-08 07:09 | 40.34874 | -7.13223 | 35920 ft | 478 kts | 48° |
| 2026-05-08 07:09 | 40.39594 | -7.07094 | 35929 ft | 478 kts | 48° |
| 2026-05-08 07:10 | 40.44314 | -7.00962 | 35930 ft | 477 kts | 48° |
| 2026-05-08 07:10 | 40.49028 | -6.94826 | 35929 ft | 477 kts | 48° |
| 2026-05-08 07:11 | 40.53737 | -6.88686 | 35926 ft | 477 kts | 48° |
| 2026-05-08 07:11 | 40.58441 | -6.82542 | 35904 ft | 476 kts | 49° |
| 2026-05-08 07:12 | 40.63136 | -6.76398 | 35911 ft | 476 kts | 49° |
| 2026-05-08 07:12 | 40.67792 | -6.70289 | 35913 ft | 476 kts | 49° |
| 2026-05-08 07:13 | 40.72474 | -6.64128 | 35905 ft | 475 kts | 49° |
| 2026-05-08 07:13 | 40.77142 | -6.57975 | 35914 ft | 474 kts | 49° |
| 2026-05-08 07:14 | 40.81808 | -6.51812 | 35914 ft | 474 kts | 49° |
| 2026-05-08 07:14 | 40.86464 | -6.45647 | 35890 ft | 474 kts | 49° |
| 2026-05-08 07:15 | 40.91117 | -6.39486 | 35909 ft | 474 kts | 49° |
| 2026-05-08 07:15 | 40.95762 | -6.33309 | 35918 ft | 473 kts | 49° |
| 2026-05-08 07:16 | 41.00418 | -6.27150 | 35924 ft | 473 kts | 48° |
| 2026-05-08 07:16 | 41.05278 | -6.21255 | 35924 ft | 474 kts | 45° |
| 2026-05-08 07:17 | 41.10252 | -6.15505 | 35930 ft | 474 kts | 45° |
| 2026-05-08 07:17 | 41.15186 | -6.09716 | 35927 ft | 473 kts | 46° |
| 2026-05-08 07:18 | 41.20070 | -6.03849 | 35893 ft | 474 kts | 46° |
| 2026-05-08 07:18 | 41.24946 | -5.97944 | 35889 ft | 475 kts | 46° |
| 2026-05-08 07:19 | 41.29844 | -5.92034 | 35894 ft | 476 kts | 46° |
| 2026-05-08 07:19 | 41.34753 | -5.86117 | 35897 ft | 477 kts | 46° |
| 2026-05-08 07:20 | 41.39670 | -5.80191 | 35901 ft | 477 kts | 46° |
| 2026-05-08 07:20 | 41.44584 | -5.74244 | 35898 ft | 477 kts | 46° |
| 2026-05-08 07:21 | 41.49494 | -5.68271 | 35874 ft | 478 kts | 47° |
| 2026-05-08 07:21 | 41.53655 | -5.61514 | 35878 ft | 468 kts | 64° |
| 2026-05-08 07:22 | 41.56425 | -5.53738 | 35888 ft | 463 kts | 71° |
| 2026-05-08 07:22 | 41.59041 | -5.45861 | 35886 ft | 464 kts | 71° |
| 2026-05-08 07:23 | 41.61670 | -5.37976 | 35893 ft | 465 kts | 71° |
| 2026-05-08 07:23 | 41.64287 | -5.30076 | 35868 ft | 465 kts | 71° |
| 2026-05-08 07:24 | 41.66899 | -5.22154 | 35879 ft | 466 kts | 71° |
| 2026-05-08 07:24 | 41.69489 | -5.14255 | 35888 ft | 467 kts | 71° |
| 2026-05-08 07:25 | 41.72099 | -5.06281 | 35896 ft | 468 kts | 71° |
| 2026-05-08 07:26 | 41.76021 | -4.94291 | 35870 ft | 469 kts | 71° |
| 2026-05-08 07:26 | 41.78632 | -4.86260 | 35900 ft | 471 kts | 71° |
| 2026-05-08 07:27 | 41.81239 | -4.78208 | 35905 ft | 471 kts | 71° |
| 2026-05-08 07:27 | 41.83847 | -4.70150 | 35908 ft | 471 kts | 71° |
| 2026-05-08 07:28 | 41.86445 | -4.62083 | 35920 ft | 471 kts | 71° |
| 2026-05-08 07:28 | 41.89038 | -4.54010 | 35896 ft | 471 kts | 71° |
| 2026-05-08 07:29 | 41.91628 | -4.45922 | 35911 ft | 471 kts | 71° |
| 2026-05-08 07:29 | 41.94218 | -4.37832 | 35914 ft | 472 kts | 71° |
| 2026-05-08 07:30 | 41.96800 | -4.29740 | 35926 ft | 472 kts | 71° |
| 2026-05-08 07:30 | 41.99379 | -4.21630 | 35924 ft | 472 kts | 71° |
| 2026-05-08 07:31 | 42.01945 | -4.13517 | 35931 ft | 472 kts | 71° |
| 2026-05-08 07:31 | 42.04581 | -4.05432 | 35930 ft | 473 kts | 69° |
| 2026-05-08 07:32 | 42.07431 | -3.97468 | 35936 ft | 474 kts | 68° |
| 2026-05-08 07:32 | 42.10276 | -3.89651 | 35942 ft | 473 kts | 68° |
| 2026-05-08 07:33 | 42.13113 | -3.81644 | 35921 ft | 473 kts | 69° |
| 2026-05-08 07:33 | 42.15907 | -3.73596 | 35940 ft | 475 kts | 69° |
| 2026-05-08 07:34 | 42.18690 | -3.65584 | 35942 ft | 475 kts | 69° |
| 2026-05-08 07:34 | 42.21499 | -3.57525 | 35946 ft | 475 kts | 68° |
| 2026-05-08 07:35 | 42.24303 | -3.49464 | 35950 ft | 475 kts | 69° |
| 2026-05-08 07:35 | 42.27100 | -3.41384 | 35920 ft | 475 kts | 68° |
| 2026-05-08 07:36 | 42.29892 | -3.33285 | 35923 ft | 476 kts | 68° |
| 2026-05-08 07:36 | 42.32680 | -3.25171 | 35931 ft | 476 kts | 69° |
| 2026-05-08 07:37 | 42.35463 | -3.17051 | 35933 ft | 476 kts | 69° |
| 2026-05-08 07:37 | 42.38245 | -3.08918 | 35941 ft | 476 kts | 68° |
| 2026-05-08 07:38 | 42.41014 | -3.00788 | 35925 ft | 476 kts | 68° |
| 2026-05-08 07:38 | 42.43760 | -2.92627 | 35930 ft | 476 kts | 71° |
| 2026-05-08 07:39 | 42.45334 | -2.84042 | 35933 ft | 467 kts | 89° |
| 2026-05-08 07:39 | 42.45519 | -2.75345 | 35944 ft | 465 kts | 93° |
| 2026-05-08 07:40 | 42.45644 | -2.66577 | 35935 ft | 466 kts | 92° |
| 2026-05-08 07:40 | 42.45767 | -2.57814 | 35941 ft | 466 kts | 93° |
| 2026-05-08 07:41 | 42.45875 | -2.49023 | 35951 ft | 467 kts | 93° |
| 2026-05-08 07:41 | 42.45975 | -2.40222 | 35958 ft | 468 kts | 93° |
| 2026-05-08 07:42 | 42.46300 | -2.31421 | 35961 ft | 472 kts | 84° |
| 2026-05-08 07:42 | 42.47719 | -2.22711 | 35943 ft | 474 kts | 80° |
| 2026-05-08 07:43 | 42.49176 | -2.13999 | 35947 ft | 475 kts | 80° |
| 2026-05-08 07:43 | 42.50619 | -2.05265 | 35954 ft | 475 kts | 80° |
| 2026-05-08 07:44 | 42.52063 | -1.96515 | 35959 ft | 476 kts | 81° |
| 2026-05-08 07:44 | 42.53494 | -1.87759 | 35946 ft | 473 kts | 80° |
| 2026-05-08 07:45 | 42.54891 | -1.79200 | 35915 ft | 461 kts | 81° |
| 2026-05-08 07:45 | 42.56263 | -1.70731 | 35908 ft | 460 kts | 81° |
| 2026-05-08 07:46 | 42.57628 | -1.62262 | 35907 ft | 459 kts | 81° |
| 2026-05-08 07:46 | 42.58987 | -1.53789 | 35907 ft | 459 kts | 81° |
| 2026-05-08 07:46 | 42.59666 | -1.49541 | 35642 ft | 463 kts | 81° |
| 2026-05-08 07:47 | 42.60349 | -1.45249 | 34583 ft | 472 kts | 81° |
| 2026-05-08 07:47 | 42.61049 | -1.40808 | 33219 ft | 488 kts | 80° |
| 2026-05-08 07:47 | 42.61766 | -1.36272 | 32210 ft | 493 kts | 80° |
| 2026-05-08 07:47 | 42.62488 | -1.31720 | 31339 ft | 494 kts | 79° |
| 2026-05-08 07:48 | 42.63212 | -1.27163 | 30496 ft | 494 kts | 79° |
| 2026-05-08 07:48 | 42.63932 | -1.22604 | 29607 ft | 493 kts | 79° |
| 2026-05-08 07:48 | 42.64647 | -1.18051 | 28630 ft | 493 kts | 79° |
| 2026-05-08 07:48 | 42.65356 | -1.13535 | 28135 ft | 482 kts | 79° |
| 2026-05-08 07:49 | 42.66045 | -1.09142 | 27925 ft | 472 kts | 79° |
| 2026-05-08 07:49 | 42.66726 | -1.04791 | 27971 ft | 469 kts | 79° |
| 2026-05-08 07:49 | 42.67401 | -1.00457 | 27965 ft | 469 kts | 79° |
| 2026-05-08 07:49 | 42.68069 | -0.96127 | 27968 ft | 468 kts | 79° |
| 2026-05-08 07:50 | 42.68734 | -0.91794 | 27970 ft | 468 kts | 79° |
| 2026-05-08 07:50 | 42.69400 | -0.87456 | 27958 ft | 469 kts | 79° |
| 2026-05-08 07:50 | 42.70064 | -0.83127 | 27958 ft | 468 kts | 79° |
| 2026-05-08 07:50 | 42.70729 | -0.78791 | 27959 ft | 469 kts | 79° |
| 2026-05-08 07:51 | 42.71396 | -0.74459 | 27322 ft | 468 kts | 79° |
| 2026-05-08 07:51 | 42.72071 | -0.70060 | 25847 ft | 482 kts | 79° |
| 2026-05-08 07:51 | 42.72748 | -0.65608 | 25076 ft | 478 kts | 79° |
| 2026-05-08 07:51 | 42.73407 | -0.61253 | 24930 ft | 463 kts | 79° |
| 2026-05-08 07:52 | 42.73834 | -0.58426 | 24869 ft | 458 kts | 79° |
| 2026-05-08 07:52 | 42.74473 | -0.54195 | 24756 ft | 456 kts | 79° |
| 2026-05-08 07:52 | 42.75108 | -0.49977 | 24596 ft | 454 kts | 79° |
| 2026-05-08 07:52 | 42.75737 | -0.45778 | 24438 ft | 453 kts | 79° |
| 2026-05-08 07:53 | 42.76364 | -0.41585 | 24280 ft | 451 kts | 79° |
| 2026-05-08 07:53 | 42.76990 | -0.37405 | 24116 ft | 450 kts | 79° |
| 2026-05-08 07:53 | 42.77611 | -0.33237 | 23951 ft | 449 kts | 79° |
| 2026-05-08 07:53 | 42.78228 | -0.29076 | 23793 ft | 448 kts | 79° |
| 2026-05-08 07:54 | 42.78847 | -0.24927 | 23634 ft | 446 kts | 78° |
| 2026-05-08 07:54 | 42.79724 | -0.20886 | 23457 ft | 445 kts | 69° |
| 2026-05-08 07:54 | 42.81069 | -0.17097 | 23304 ft | 444 kts | 59° |
| 2026-05-08 07:54 | 42.82824 | -0.13658 | 23141 ft | 442 kts | 52° |
| 2026-05-08 07:55 | 42.84684 | -0.10325 | 22982 ft | 441 kts | 52° |
| 2026-05-08 07:55 | 42.86531 | -0.06988 | 22812 ft | 440 kts | 52° |
| 2026-05-08 07:55 | 42.88368 | -0.03656 | 22646 ft | 439 kts | 52° |
| 2026-05-08 07:55 | 42.90196 | -0.00326 | 22508 ft | 438 kts | 52° |
| 2026-05-08 07:56 | 42.92019 | 0.02997 | 22343 ft | 437 kts | 52° |
| 2026-05-08 07:56 | 42.93841 | 0.06317 | 22191 ft | 437 kts | 52° |
| 2026-05-08 07:56 | 42.95658 | 0.09626 | 22031 ft | 435 kts | 52° |
| 2026-05-08 07:56 | 42.97473 | 0.12936 | 21880 ft | 434 kts | 52° |
| 2026-05-08 07:57 | 42.99278 | 0.16232 | 21729 ft | 433 kts | 52° |
| 2026-05-08 07:57 | 43.01079 | 0.19523 | 21568 ft | 432 kts | 52° |
| 2026-05-08 07:57 | 43.02869 | 0.22801 | 21416 ft | 429 kts | 52° |
| 2026-05-08 07:57 | 43.04649 | 0.26060 | 21251 ft | 427 kts | 52° |
| 2026-05-08 07:58 | 43.06424 | 0.29308 | 21103 ft | 425 kts | 52° |
| 2026-05-08 07:58 | 43.08189 | 0.32541 | 20941 ft | 423 kts | 52° |
| 2026-05-08 07:58 | 43.09945 | 0.35762 | 20793 ft | 422 kts | 53° |
| 2026-05-08 07:58 | 43.11693 | 0.38977 | 20629 ft | 421 kts | 52° |
| 2026-05-08 07:59 | 43.13440 | 0.42196 | 20477 ft | 421 kts | 52° |
| 2026-05-08 07:59 | 43.15180 | 0.45408 | 20343 ft | 420 kts | 53° |
| 2026-05-08 07:59 | 43.16916 | 0.48610 | 20181 ft | 418 kts | 53° |
| 2026-05-08 07:59 | 43.18648 | 0.51807 | 20035 ft | 417 kts | 53° |
| 2026-05-08 08:00 | 43.20374 | 0.54994 | 19883 ft | 416 kts | 53° |
| 2026-05-08 08:00 | 43.22094 | 0.58175 | 19740 ft | 415 kts | 53° |
| 2026-05-08 08:00 | 43.23805 | 0.61346 | 19593 ft | 413 kts | 53° |
| 2026-05-08 08:00 | 43.25511 | 0.64512 | 19439 ft | 412 kts | 53° |
| 2026-05-08 08:01 | 43.27212 | 0.67670 | 19292 ft | 411 kts | 53° |
| 2026-05-08 08:01 | 43.28825 | 0.70890 | 19135 ft | 409 kts | 60° |
| 2026-05-08 08:01 | 43.30006 | 0.74431 | 18997 ft | 408 kts | 71° |
| 2026-05-08 08:01 | 43.30705 | 0.78195 | 18674 ft | 406 kts | 82° |
| 2026-05-08 08:02 | 43.30889 | 0.82031 | 18224 ft | 401 kts | 92° |
| 2026-05-08 08:02 | 43.30739 | 0.85836 | 17757 ft | 398 kts | 94° |
| 2026-05-08 08:02 | 43.30588 | 0.89617 | 17360 ft | 395 kts | 94° |
| 2026-05-08 08:02 | 43.30441 | 0.93374 | 16956 ft | 393 kts | 94° |
| 2026-05-08 08:03 | 43.30297 | 0.97056 | 16556 ft | 390 kts | 94° |
| 2026-05-08 08:03 | 43.30150 | 1.00763 | 16155 ft | 388 kts | 94° |
| 2026-05-08 08:03 | 43.30005 | 1.04445 | 15765 ft | 384 kts | 94° |
| 2026-05-08 08:03 | 43.29862 | 1.08042 | 15626 ft | 371 kts | 94° |
| 2026-05-08 08:04 | 43.29724 | 1.11516 | 15498 ft | 358 kts | 94° |
| 2026-05-08 08:04 | 43.29590 | 1.14871 | 15372 ft | 346 kts | 95° |
| 2026-05-08 08:04 | 43.29597 | 1.18119 | 15245 ft | 337 kts | 81° |
| 2026-05-08 08:04 | 43.30402 | 1.21072 | 15112 ft | 329 kts | 57° |
| 2026-05-08 08:05 | 43.31973 | 1.23298 | 14808 ft | 326 kts | 32° |
| 2026-05-08 08:05 | 43.34055 | 1.24442 | 14504 ft | 322 kts | 9° |
| 2026-05-08 08:05 | 43.36268 | 1.24823 | 14222 ft | 319 kts | 1° |
| 2026-05-08 08:05 | 43.38465 | 1.24588 | 13944 ft | 316 kts | 346° |
| 2026-05-08 08:06 | 43.40536 | 1.23654 | 13718 ft | 313 kts | 333° |
| 2026-05-08 08:06 | 43.42453 | 1.22263 | 13487 ft | 312 kts | 330° |
| 2026-05-08 08:06 | 43.44369 | 1.20854 | 13257 ft | 312 kts | 330° |
| 2026-05-08 08:06 | 43.46287 | 1.19454 | 13030 ft | 312 kts | 329° |
| 2026-05-08 08:07 | 43.48208 | 1.18052 | 12824 ft | 312 kts | 330° |
| 2026-05-08 08:07 | 43.50120 | 1.16659 | 12606 ft | 310 kts | 330° |
| 2026-05-08 08:07 | 43.52024 | 1.15270 | 12380 ft | 308 kts | 331° |
| 2026-05-08 08:07 | 43.53914 | 1.13886 | 12163 ft | 307 kts | 330° |
| 2026-05-08 08:08 | 43.55797 | 1.12503 | 11938 ft | 306 kts | 331° |
| 2026-05-08 08:08 | 43.57675 | 1.11121 | 11713 ft | 306 kts | 331° |
| 2026-05-08 08:08 | 43.59549 | 1.09740 | 11496 ft | 305 kts | 331° |
| 2026-05-08 08:08 | 43.61412 | 1.08369 | 11277 ft | 304 kts | 331° |
| 2026-05-08 08:09 | 43.63268 | 1.07004 | 11056 ft | 301 kts | 331° |
| 2026-05-08 08:09 | 43.65108 | 1.05645 | 10833 ft | 300 kts | 331° |
| 2026-05-08 08:09 | 43.66933 | 1.04256 | 10573 ft | 298 kts | 330° |
| 2026-05-08 08:09 | 43.68739 | 1.02855 | 10320 ft | 298 kts | 330° |
| 2026-05-08 08:10 | 43.70539 | 1.01450 | 10072 ft | 296 kts | 330° |
| 2026-05-08 08:10 | 43.72325 | 1.00059 | 9813 ft | 295 kts | 331° |
| 2026-05-08 08:10 | 43.74110 | 0.98673 | 9543 ft | 293 kts | 331° |
| 2026-05-08 08:10 | 43.75886 | 0.97297 | 9287 ft | 292 kts | 331° |
| 2026-05-08 08:11 | 43.77661 | 0.95920 | 9048 ft | 292 kts | 331° |
| 2026-05-08 08:11 | 43.79429 | 0.94550 | 8796 ft | 292 kts | 332° |
| 2026-05-08 08:11 | 43.81242 | 0.93292 | 8543 ft | 291 kts | 343° |
| 2026-05-08 08:11 | 43.83215 | 0.92949 | 8306 ft | 286 kts | 6° |
| 2026-05-08 08:12 | 43.85104 | 0.93689 | 8069 ft | 282 kts | 30° |
| 2026-05-08 08:12 | 43.86634 | 0.95340 | 7671 ft | 281 kts | 52° |
| 2026-05-08 08:12 | 43.87576 | 0.97677 | 7246 ft | 277 kts | 73° |
| 2026-05-08 08:12 | 43.87813 | 1.00311 | 6791 ft | 276 kts | 96° |
| 2026-05-08 08:13 | 43.87594 | 1.02915 | 6493 ft | 270 kts | 97° |
| 2026-05-08 08:13 | 43.87385 | 1.05493 | 6100 ft | 269 kts | 97° |
| 2026-05-08 08:13 | 43.87174 | 1.08035 | 5570 ft | 264 kts | 101° |
| 2026-05-08 08:13 | 43.86589 | 1.10420 | 4903 ft | 261 kts | 118° |
| 2026-05-08 08:14 | 43.85513 | 1.12408 | 4423 ft | 256 kts | 135° |
| 2026-05-08 08:14 | 43.84187 | 1.13891 | 4286 ft | 234 kts | 141° |
| 2026-05-08 08:14 | 43.82943 | 1.15196 | 4198 ft | 217 kts | 141° |
| 2026-05-08 08:14 | 43.81756 | 1.16443 | 4112 ft | 212 kts | 141° |
| 2026-05-08 08:15 | 43.80586 | 1.17672 | 4013 ft | 211 kts | 141° |
| 2026-05-08 08:15 | 43.79431 | 1.18883 | 3921 ft | 205 kts | 141° |
| 2026-05-08 08:15 | 43.78325 | 1.20043 | 3828 ft | 196 kts | 141° |
| 2026-05-08 08:15 | 43.77244 | 1.21177 | 3634 ft | 193 kts | 141° |
| 2026-05-08 08:16 | 43.76207 | 1.22263 | 3399 ft | 181 kts | 142° |
| 2026-05-08 08:16 | 43.75222 | 1.23296 | 3159 ft | 174 kts | 142° |
| 2026-05-08 08:16 | 43.74276 | 1.24285 | 2927 ft | 166 kts | 142° |
| 2026-05-08 08:16 | 43.73381 | 1.25221 | 2716 ft | 155 kts | 141° |
| 2026-05-08 08:17 | 43.72554 | 1.26086 | 2524 ft | 145 kts | 141° |
| 2026-05-08 08:17 | 43.71763 | 1.26914 | 2321 ft | 140 kts | 141° |
| 2026-05-08 08:17 | 43.70988 | 1.27724 | 2138 ft | 139 kts | 140° |
| 2026-05-08 08:17 | 43.70220 | 1.28528 | 1951 ft | 138 kts | 140° |
| 2026-05-08 08:18 | 43.69456 | 1.29325 | 1770 ft | 138 kts | 140° |
| 2026-05-08 08:18 | 43.68695 | 1.30121 | 1575 ft | 137 kts | 140° |
| 2026-05-08 08:18 | 43.67933 | 1.30916 | 1403 ft | 137 kts | 143° |
| 2026-05-08 08:18 | 43.67176 | 1.31706 | 1217 ft | 136 kts | 141° |
| 2026-05-08 08:19 | 43.66421 | 1.32494 | 1032 ft | 135 kts | 141° |
| 2026-05-08 08:19 | 43.65671 | 1.33278 | 843 ft | 135 kts | 141° |
| 2026-05-08 08:19 | 43.64922 | 1.34049 | 661 ft | 136 kts | 141° |
| 2026-05-08 08:19 | 43.64177 | 1.34843 | 520 ft | 134 kts | 142° |
| 2026-05-08 08:20 | 43.63495 | 1.35547 | 490 ft | 101 kts | 143° |
| 2026-05-08 08:20 | 43.63073 | 1.35988 | 488 ft | 51 kts | 142° |
| 2026-05-08 08:20 | 43.62822 | 1.36248 | 489 ft | 41 kts | 143° |
| 2026-05-08 08:20 | 43.62611 | 1.36469 | 488 ft | 35 kts | 144° |
| 2026-05-08 08:21 | 43.62459 | 1.36630 | 489 ft | 16 kts | 139° |
| 2026-05-08 08:21 | 43.62449 | 1.36772 | 490 ft | 16 kts | 77° |
| 2026-05-08 08:21 | 43.62461 | 1.36889 | 490 ft | 8 kts | 83° |
| 2026-05-08 08:21 | 43.62462 | 1.36904 | 490 ft | 0 kts | 83° |
| 2026-05-08 08:22 | 43.62462 | 1.36905 | 491 ft | 1 kts | 83° |
| 2026-05-08 08:22 | 43.62465 | 1.36937 | 494 ft | 6 kts | 83° |
| 2026-05-08 08:22 | 43.62471 | 1.37005 | 494 ft | 8 kts | 83° |
| 2026-05-08 08:23 | 43.62480 | 1.37096 | 494 ft | 11 kts | 83° |
| 2026-05-08 08:23 | 43.62492 | 1.37200 | 488 ft | 11 kts | 71° |
| 2026-05-08 08:23 | 43.62538 | 1.37297 | 487 ft | 13 kts | 53° |
| 2026-05-08 08:23 | 43.62593 | 1.37397 | 487 ft | 12 kts | 53° |
| 2026-05-08 08:24 | 43.62642 | 1.37473 | 491 ft | 9 kts | 32° |
| 2026-05-08 08:24 | 43.62703 | 1.37459 | 489 ft | 10 kts | 324° |
| 2026-05-08 08:24 | 43.62759 | 1.37400 | 494 ft | 10 kts | 324° |
| 2026-05-08 08:24 | 43.62809 | 1.37349 | 488 ft | 8 kts | 323° |
| 2026-05-08 08:25 | 43.62857 | 1.37298 | 488 ft | 9 kts | 322° |
| 2026-05-08 08:25 | 43.62909 | 1.37244 | 487 ft | 9 kts | 323° |
| 2026-05-08 08:25 | 43.62952 | 1.37197 | 489 ft | 8 kts | 322° |
| 2026-05-08 08:25 | 43.62996 | 1.37178 | 490 ft | 7 kts | 30° |
| 2026-05-08 08:26 | 43.63019 | 1.37215 | 488 ft | 2 kts | 53° |
| 2026-05-08 08:26 | 43.63028 | 1.37231 | 486 ft | 2 kts | 53° |
| 2026-05-08 08:26 | 43.63036 | 1.37248 | 491 ft | 2 kts | 54° |
| 2026-05-08 08:26 | 43.63037 | 1.37249 | 491 ft | 0 kts | 54° |